sensor_id;sensor_type;location;lat;lon;timestamp;temperature;humidity
1083;DHT22;530;51.448;7.238;2023-10-31T00:00:38;13.60;99.90
1083;DHT22;530;51.448;7.238;2023-10-31T00:03:04;13.60;99.90
1083;DHT22;530;51.448;7.238;2023-10-31T00:05:30;13.50;99.90
1083;DHT22;530;51.448;7.238;2023-10-31T00:07:55;13.50;99.90
1083;DHT22;530;51.448;7.238;2023-10-31T00:10:21;13.40;99.90
1083;DHT22;530;51.448;7.238;2023-10-31T00:12:47;13.40;99.90
1083;DHT22;530;51.448;7.238;2023-10-31T00:15:13;13.30;99.90
1083;DHT22;530;51.448;7.238;2023-10-31T00:17:39;13.10;99.90
1083;DHT22;530;51.448;7.238;2023-10-31T00:20:05;13.10;99.90
1083;DHT22;530;51.448;7.238;2023-10-31T00:22:31;13.00;99.90
1083;DHT22;530;51.448;7.238;2023-10-31T00:24:57;12.90;99.90
1083;DHT22;530;51.448;7.238;2023-10-31T00:27:23;12.90;99.90
1083;DHT22;530;51.448;7.238;2023-10-31T00:29:48;12.80;99.90
1083;DHT22;530;51.448;7.238;2023-10-31T00:32:14;12.70;99.90
1083;DHT22;530;51.448;7.238;2023-10-31T00:34:40;12.60;99.90
1083;DHT22;530;51.448;7.238;2023-10-31T00:37:05;12.60;99.90
1083;DHT22;530;51.448;7.238;2023-10-31T00:39:31;12.60;99.90
1083;DHT22;530;51.448;7.238;2023-10-31T00:41:59;12.40;99.90
1083;DHT22;530;51.448;7.238;2023-10-31T00:44:24;12.40;99.90
1083;DHT22;530;51.448;7.238;2023-10-31T00:46:50;12.40;99.90
1083;DHT22;530;51.448;7.238;2023-10-31T00:49:15;12.40;99.90
1083;DHT22;530;51.448;7.238;2023-10-31T00:51:41;12.30;99.90
1083;DHT22;530;51.448;7.238;2023-10-31T00:54:07;12.30;99.90
1083;DHT22;530;51.448;7.238;2023-10-31T00:56:32;12.30;99.90
1083;DHT22;530;51.448;7.238;2023-10-31T00:58:58;12.30;99.90
1083;DHT22;530;51.448;7.238;2023-10-31T01:01:24;12.20;99.90
1083;DHT22;530;51.448;7.238;2023-10-31T01:03:49;12.20;99.90
1083;DHT22;530;51.448;7.238;2023-10-31T01:06:15;12.20;99.90
1083;DHT22;530;51.448;7.238;2023-10-31T01:08:41;12.10;99.90
1083;DHT22;530;51.448;7.238;2023-10-31T01:11:06;12.10;99.90
1083;DHT22;530;51.448;7.238;2023-10-31T01:13:32;12.00;99.90
1083;DHT22;530;51.448;7.238;2023-10-31T01:15:58;12.00;99.90
1083;DHT22;530;51.448;7.238;2023-10-31T01:18:23;12.00;99.90
1083;DHT22;530;51.448;7.238;2023-10-31T01:20:49;12.00;99.90
1083;DHT22;530;51.448;7.238;2023-10-31T01:23:14;11.90;99.90
1083;DHT22;530;51.448;7.238;2023-10-31T01:25:40;11.90;99.90
1083;DHT22;530;51.448;7.238;2023-10-31T01:28:06;11.90;99.90
1083;DHT22;530;51.448;7.238;2023-10-31T01:30:32;11.90;99.90
1083;DHT22;530;51.448;7.238;2023-10-31T01:32:57;11.90;99.90
1083;DHT22;530;51.448;7.238;2023-10-31T01:35:23;11.80;99.90
1083;DHT22;530;51.448;7.238;2023-10-31T01:37:49;11.80;99.90
1083;DHT22;530;51.448;7.238;2023-10-31T01:40:14;11.80;99.90
1083;DHT22;530;51.448;7.238;2023-10-31T01:42:40;11.80;99.90
1083;DHT22;530;51.448;7.238;2023-10-31T01:45:06;11.80;99.90
1083;DHT22;530;51.448;7.238;2023-10-31T01:47:32;11.90;99.90
1083;DHT22;530;51.448;7.238;2023-10-31T01:49:58;11.80;99.90
1083;DHT22;530;51.448;7.238;2023-10-31T01:52:25;11.90;99.90
1083;DHT22;530;51.448;7.238;2023-10-31T01:54:51;11.90;99.90
1083;DHT22;530;51.448;7.238;2023-10-31T01:57:19;11.80;99.90
1083;DHT22;530;51.448;7.238;2023-10-31T01:59:46;11.80;99.90
1083;DHT22;530;51.448;7.238;2023-10-31T02:02:12;11.80;99.90
1083;DHT22;530;51.448;7.238;2023-10-31T02:04:38;11.80;99.90
1083;DHT22;530;51.448;7.238;2023-10-31T02:07:03;11.70;99.90
1083;DHT22;530;51.448;7.238;2023-10-31T02:09:29;11.70;99.90
1083;DHT22;530;51.448;7.238;2023-10-31T02:11:55;11.70;99.90
1083;DHT22;530;51.448;7.238;2023-10-31T02:14:24;11.70;99.90
1083;DHT22;530;51.448;7.238;2023-10-31T02:16:51;11.70;99.90
1083;DHT22;530;51.448;7.238;2023-10-31T02:19:20;11.70;99.90
1083;DHT22;530;51.448;7.238;2023-10-31T02:21:46;11.70;99.90
1083;DHT22;530;51.448;7.238;2023-10-31T02:24:11;11.70;99.90
1083;DHT22;530;51.448;7.238;2023-10-31T02:26:37;11.80;99.90
1083;DHT22;530;51.448;7.238;2023-10-31T02:29:03;11.70;99.90
1083;DHT22;530;51.448;7.238;2023-10-31T02:31:29;11.60;99.90
1083;DHT22;530;51.448;7.238;2023-10-31T02:33:55;11.60;99.90
1083;DHT22;530;51.448;7.238;2023-10-31T02:36:21;11.50;99.90
1083;DHT22;530;51.448;7.238;2023-10-31T02:38:47;11.50;99.90
1083;DHT22;530;51.448;7.238;2023-10-31T02:41:13;11.60;99.90
1083;DHT22;530;51.448;7.238;2023-10-31T02:43:40;11.60;99.90
1083;DHT22;530;51.448;7.238;2023-10-31T02:46:05;11.60;99.90
1083;DHT22;530;51.448;7.238;2023-10-31T02:48:31;11.50;99.90
1083;DHT22;530;51.448;7.238;2023-10-31T02:51:04;11.50;99.90
1083;DHT22;530;51.448;7.238;2023-10-31T02:53:30;11.50;99.90
1083;DHT22;530;51.448;7.238;2023-10-31T02:55:55;11.50;99.90
1083;DHT22;530;51.448;7.238;2023-10-31T02:58:21;11.50;99.90
1083;DHT22;530;51.448;7.238;2023-10-31T03:00:47;11.50;99.90
1083;DHT22;530;51.448;7.238;2023-10-31T03:03:13;11.50;99.90
1083;DHT22;530;51.448;7.238;2023-10-31T03:05:39;11.60;99.90
1083;DHT22;530;51.448;7.238;2023-10-31T03:08:04;11.60;99.90
1083;DHT22;530;51.448;7.238;2023-10-31T03:10:30;11.50;99.90
1083;DHT22;530;51.448;7.238;2023-10-31T03:12:56;11.60;99.90
1083;DHT22;530;51.448;7.238;2023-10-31T03:15:21;11.50;99.90
1083;DHT22;530;51.448;7.238;2023-10-31T03:17:47;11.60;99.90
1083;DHT22;530;51.448;7.238;2023-10-31T03:20:13;11.60;99.90
1083;DHT22;530;51.448;7.238;2023-10-31T03:22:38;11.60;99.90
1083;DHT22;530;51.448;7.238;2023-10-31T03:25:04;11.50;99.90
1083;DHT22;530;51.448;7.238;2023-10-31T03:27:30;11.50;99.90
1083;DHT22;530;51.448;7.238;2023-10-31T03:29:56;11.50;99.90
1083;DHT22;530;51.448;7.238;2023-10-31T03:32:22;11.50;99.90
1083;DHT22;530;51.448;7.238;2023-10-31T03:34:47;11.50;99.90
1083;DHT22;530;51.448;7.238;2023-10-31T03:37:13;11.50;99.90
1083;DHT22;530;51.448;7.238;2023-10-31T03:39:39;11.50;99.90
1083;DHT22;530;51.448;7.238;2023-10-31T03:42:04;11.50;99.90
1083;DHT22;530;51.448;7.238;2023-10-31T03:44:31;11.60;99.90
1083;DHT22;530;51.448;7.238;2023-10-31T03:46:56;11.60;99.90
1083;DHT22;530;51.448;7.238;2023-10-31T03:49:22;11.50;99.90
1083;DHT22;530;51.448;7.238;2023-10-31T03:51:48;11.50;99.90
1083;DHT22;530;51.448;7.238;2023-10-31T03:54:14;11.50;99.90
1083;DHT22;530;51.448;7.238;2023-10-31T03:56:43;11.50;99.90
1083;DHT22;530;51.448;7.238;2023-10-31T03:59:09;11.50;99.90
1083;DHT22;530;51.448;7.238;2023-10-31T04:01:35;11.50;99.90
1083;DHT22;530;51.448;7.238;2023-10-31T04:04:01;11.40;99.90
1083;DHT22;530;51.448;7.238;2023-10-31T04:06:27;11.40;99.90
1083;DHT22;530;51.448;7.238;2023-10-31T04:08:52;11.40;99.90
1083;DHT22;530;51.448;7.238;2023-10-31T04:11:18;11.40;99.90
1083;DHT22;530;51.448;7.238;2023-10-31T04:13:44;11.50;99.90
1083;DHT22;530;51.448;7.238;2023-10-31T04:16:09;11.50;99.90
1083;DHT22;530;51.448;7.238;2023-10-31T04:18:36;11.50;99.90
1083;DHT22;530;51.448;7.238;2023-10-31T04:21:02;11.40;99.90
1083;DHT22;530;51.448;7.238;2023-10-31T04:23:27;11.50;99.90
1083;DHT22;530;51.448;7.238;2023-10-31T04:25:53;11.40;99.90
1083;DHT22;530;51.448;7.238;2023-10-31T04:28:19;11.40;99.90
1083;DHT22;530;51.448;7.238;2023-10-31T04:30:45;11.40;99.90
1083;DHT22;530;51.448;7.238;2023-10-31T04:33:10;11.50;99.90
1083;DHT22;530;51.448;7.238;2023-10-31T04:35:36;11.50;99.90
1083;DHT22;530;51.448;7.238;2023-10-31T04:38:02;11.50;99.90
1083;DHT22;530;51.448;7.238;2023-10-31T04:40:27;11.50;99.90
1083;DHT22;530;51.448;7.238;2023-10-31T04:42:54;11.50;99.90
1083;DHT22;530;51.448;7.238;2023-10-31T04:45:20;11.50;99.90
1083;DHT22;530;51.448;7.238;2023-10-31T04:47:45;11.50;99.90
1083;DHT22;530;51.448;7.238;2023-10-31T04:50:11;11.50;99.90
1083;DHT22;530;51.448;7.238;2023-10-31T04:52:37;11.50;99.90
1083;DHT22;530;51.448;7.238;2023-10-31T04:55:03;11.40;99.90
1083;DHT22;530;51.448;7.238;2023-10-31T04:57:28;11.50;99.90
1083;DHT22;530;51.448;7.238;2023-10-31T04:59:54;11.50;99.90
1083;DHT22;530;51.448;7.238;2023-10-31T05:02:23;11.50;99.90
1083;DHT22;530;51.448;7.238;2023-10-31T05:04:49;11.40;99.90
1083;DHT22;530;51.448;7.238;2023-10-31T05:07:19;11.40;99.90
1083;DHT22;530;51.448;7.238;2023-10-31T05:09:45;11.40;99.90
1083;DHT22;530;51.448;7.238;2023-10-31T05:12:11;11.40;99.90
1083;DHT22;530;51.448;7.238;2023-10-31T05:14:37;11.50;99.90
1083;DHT22;530;51.448;7.238;2023-10-31T05:17:02;11.40;99.90
1083;DHT22;530;51.448;7.238;2023-10-31T05:19:28;11.40;99.90
1083;DHT22;530;51.448;7.238;2023-10-31T05:21:54;11.50;99.90
1083;DHT22;530;51.448;7.238;2023-10-31T05:24:19;11.40;99.90
1083;DHT22;530;51.448;7.238;2023-10-31T05:26:46;11.40;99.90
1083;DHT22;530;51.448;7.238;2023-10-31T05:29:12;11.40;99.90
1083;DHT22;530;51.448;7.238;2023-10-31T05:31:37;11.40;99.90
1083;DHT22;530;51.448;7.238;2023-10-31T05:34:03;11.40;99.90
1083;DHT22;530;51.448;7.238;2023-10-31T05:36:32;11.40;99.90
1083;DHT22;530;51.448;7.238;2023-10-31T05:38:58;11.50;99.90
1083;DHT22;530;51.448;7.238;2023-10-31T05:41:23;11.40;99.90
1083;DHT22;530;51.448;7.238;2023-10-31T05:43:49;11.40;99.90
1083;DHT22;530;51.448;7.238;2023-10-31T05:46:15;11.40;99.90
1083;DHT22;530;51.448;7.238;2023-10-31T05:48:43;11.40;99.90
1083;DHT22;530;51.448;7.238;2023-10-31T05:51:13;11.50;99.90
1083;DHT22;530;51.448;7.238;2023-10-31T05:53:40;11.50;99.90
1083;DHT22;530;51.448;7.238;2023-10-31T05:56:06;11.50;99.90
1083;DHT22;530;51.448;7.238;2023-10-31T05:58:33;11.50;99.90
1083;DHT22;530;51.448;7.238;2023-10-31T06:00:58;11.50;99.90
1083;DHT22;530;51.448;7.238;2023-10-31T06:03:24;11.40;99.90
1083;DHT22;530;51.448;7.238;2023-10-31T06:05:50;11.40;99.90
1083;DHT22;530;51.448;7.238;2023-10-31T06:08:15;11.50;99.90
1083;DHT22;530;51.448;7.238;2023-10-31T06:10:41;11.40;99.90
1083;DHT22;530;51.448;7.238;2023-10-31T06:13:07;11.40;99.90
1083;DHT22;530;51.448;7.238;2023-10-31T06:15:33;11.30;99.90
1083;DHT22;530;51.448;7.238;2023-10-31T06:17:58;11.40;99.90
1083;DHT22;530;51.448;7.238;2023-10-31T06:20:24;11.40;99.90
1083;DHT22;530;51.448;7.238;2023-10-31T06:22:49;11.40;99.90
1083;DHT22;530;51.448;7.238;2023-10-31T06:25:15;11.40;99.90
1083;DHT22;530;51.448;7.238;2023-10-31T06:27:41;11.40;99.90
1083;DHT22;530;51.448;7.238;2023-10-31T06:30:07;11.40;99.90
1083;DHT22;530;51.448;7.238;2023-10-31T06:32:33;11.40;99.90
1083;DHT22;530;51.448;7.238;2023-10-31T06:34:59;11.40;99.90
1083;DHT22;530;51.448;7.238;2023-10-31T06:37:24;11.40;99.90
1083;DHT22;530;51.448;7.238;2023-10-31T06:39:50;11.30;99.90
1083;DHT22;530;51.448;7.238;2023-10-31T06:42:15;11.40;99.90
1083;DHT22;530;51.448;7.238;2023-10-31T06:44:41;11.40;99.90
1083;DHT22;530;51.448;7.238;2023-10-31T06:47:07;11.40;99.90
1083;DHT22;530;51.448;7.238;2023-10-31T06:49:32;11.40;99.90
1083;DHT22;530;51.448;7.238;2023-10-31T06:51:58;11.40;99.90
1083;DHT22;530;51.448;7.238;2023-10-31T06:54:24;11.40;99.90
1083;DHT22;530;51.448;7.238;2023-10-31T06:56:49;11.50;99.90
1083;DHT22;530;51.448;7.238;2023-10-31T06:59:15;11.50;99.90
1083;DHT22;530;51.448;7.238;2023-10-31T07:01:40;11.50;99.90
1083;DHT22;530;51.448;7.238;2023-10-31T07:04:06;11.50;99.90
1083;DHT22;530;51.448;7.238;2023-10-31T07:06:32;11.50;99.90
1083;DHT22;530;51.448;7.238;2023-10-31T07:08:58;11.50;99.90
1083;DHT22;530;51.448;7.238;2023-10-31T07:11:25;11.50;99.90
1083;DHT22;530;51.448;7.238;2023-10-31T07:13:51;11.50;99.90
1083;DHT22;530;51.448;7.238;2023-10-31T07:16:17;11.50;99.90
1083;DHT22;530;51.448;7.238;2023-10-31T07:18:42;11.50;99.90
1083;DHT22;530;51.448;7.238;2023-10-31T07:21:08;11.50;99.90
1083;DHT22;530;51.448;7.238;2023-10-31T07:23:33;11.50;99.90
1083;DHT22;530;51.448;7.238;2023-10-31T07:25:59;11.50;99.90
1083;DHT22;530;51.448;7.238;2023-10-31T07:28:25;11.50;99.90
1083;DHT22;530;51.448;7.238;2023-10-31T07:30:50;11.50;99.90
1083;DHT22;530;51.448;7.238;2023-10-31T07:33:16;11.40;99.90
1083;DHT22;530;51.448;7.238;2023-10-31T07:35:42;11.40;99.90
1083;DHT22;530;51.448;7.238;2023-10-31T07:38:07;11.50;99.90
1083;DHT22;530;51.448;7.238;2023-10-31T07:40:33;11.50;99.90
1083;DHT22;530;51.448;7.238;2023-10-31T07:42:59;11.50;99.90
1083;DHT22;530;51.448;7.238;2023-10-31T07:45:24;11.50;99.90
1083;DHT22;530;51.448;7.238;2023-10-31T07:47:50;11.50;99.90
1083;DHT22;530;51.448;7.238;2023-10-31T07:50:15;11.60;99.90
1083;DHT22;530;51.448;7.238;2023-10-31T07:52:41;11.60;99.90
1083;DHT22;530;51.448;7.238;2023-10-31T07:55:09;11.60;99.90
1083;DHT22;530;51.448;7.238;2023-10-31T07:57:36;11.60;99.90
1083;DHT22;530;51.448;7.238;2023-10-31T08:00:02;11.70;99.90
1083;DHT22;530;51.448;7.238;2023-10-31T08:02:28;11.70;99.90
1083;DHT22;530;51.448;7.238;2023-10-31T08:04:54;11.60;99.90
1083;DHT22;530;51.448;7.238;2023-10-31T08:07:19;11.60;99.90
1083;DHT22;530;51.448;7.238;2023-10-31T08:09:45;11.60;99.90
1083;DHT22;530;51.448;7.238;2023-10-31T08:12:11;11.70;99.90
1083;DHT22;530;51.448;7.238;2023-10-31T08:14:36;11.70;99.90
1083;DHT22;530;51.448;7.238;2023-10-31T08:17:02;11.70;99.90
1083;DHT22;530;51.448;7.238;2023-10-31T08:19:28;11.70;99.90
1083;DHT22;530;51.448;7.238;2023-10-31T08:21:53;11.70;99.90
1083;DHT22;530;51.448;7.238;2023-10-31T08:24:19;11.70;99.90
1083;DHT22;530;51.448;7.238;2023-10-31T08:26:44;11.70;99.90
1083;DHT22;530;51.448;7.238;2023-10-31T08:29:10;11.60;99.90
1083;DHT22;530;51.448;7.238;2023-10-31T08:31:36;11.70;99.90
1083;DHT22;530;51.448;7.238;2023-10-31T08:34:01;11.60;99.90
1083;DHT22;530;51.448;7.238;2023-10-31T08:36:27;11.60;99.90
1083;DHT22;530;51.448;7.238;2023-10-31T08:38:53;11.70;99.90
1083;DHT22;530;51.448;7.238;2023-10-31T08:41:19;11.60;99.90
1083;DHT22;530;51.448;7.238;2023-10-31T08:43:46;11.70;99.90
1083;DHT22;530;51.448;7.238;2023-10-31T08:46:12;11.70;99.90
1083;DHT22;530;51.448;7.238;2023-10-31T08:48:38;11.70;99.90
1083;DHT22;530;51.448;7.238;2023-10-31T08:51:04;11.60;99.90
1083;DHT22;530;51.448;7.238;2023-10-31T08:53:30;11.70;99.90
1083;DHT22;530;51.448;7.238;2023-10-31T08:55:55;11.70;99.90
1083;DHT22;530;51.448;7.238;2023-10-31T08:58:22;11.70;99.90
1083;DHT22;530;51.448;7.238;2023-10-31T09:00:47;11.70;99.90
1083;DHT22;530;51.448;7.238;2023-10-31T09:03:13;11.80;99.90
1083;DHT22;530;51.448;7.238;2023-10-31T09:05:40;11.80;99.90
1083;DHT22;530;51.448;7.238;2023-10-31T09:08:05;11.90;99.90
1083;DHT22;530;51.448;7.238;2023-10-31T09:10:33;12.00;99.90
1083;DHT22;530;51.448;7.238;2023-10-31T09:12:59;12.00;99.90
1083;DHT22;530;51.448;7.238;2023-10-31T09:15:24;12.00;99.90
1083;DHT22;530;51.448;7.238;2023-10-31T09:17:50;12.00;99.90
1083;DHT22;530;51.448;7.238;2023-10-31T09:20:16;12.00;99.90
1083;DHT22;530;51.448;7.238;2023-10-31T09:22:41;12.10;99.90
1083;DHT22;530;51.448;7.238;2023-10-31T09:25:07;12.10;99.90
1083;DHT22;530;51.448;7.238;2023-10-31T09:27:33;12.10;99.90
1083;DHT22;530;51.448;7.238;2023-10-31T09:29:59;12.10;99.90
1083;DHT22;530;51.448;7.238;2023-10-31T09:32:24;12.10;99.90
1083;DHT22;530;51.448;7.238;2023-10-31T09:34:50;12.10;99.90
1083;DHT22;530;51.448;7.238;2023-10-31T09:37:16;12.10;99.90
1083;DHT22;530;51.448;7.238;2023-10-31T09:39:42;12.10;99.90
1083;DHT22;530;51.448;7.238;2023-10-31T09:42:07;12.10;99.90
1083;DHT22;530;51.448;7.238;2023-10-31T09:44:33;12.10;99.90
1083;DHT22;530;51.448;7.238;2023-10-31T09:47:01;12.10;99.90
1083;DHT22;530;51.448;7.238;2023-10-31T09:49:27;12.10;99.90
1083;DHT22;530;51.448;7.238;2023-10-31T09:51:53;12.20;99.90
1083;DHT22;530;51.448;7.238;2023-10-31T09:54:20;12.20;99.90
1083;DHT22;530;51.448;7.238;2023-10-31T09:56:46;12.20;99.90
1083;DHT22;530;51.448;7.238;2023-10-31T09:59:14;12.20;99.90
1083;DHT22;530;51.448;7.238;2023-10-31T10:01:41;12.20;99.90
1083;DHT22;530;51.448;7.238;2023-10-31T10:04:07;12.20;99.90
1083;DHT22;530;51.448;7.238;2023-10-31T10:06:33;12.20;99.90
1083;DHT22;530;51.448;7.238;2023-10-31T10:08:59;12.10;99.90
1083;DHT22;530;51.448;7.238;2023-10-31T10:11:25;12.20;99.90
1083;DHT22;530;51.448;7.238;2023-10-31T10:13:54;12.20;99.90
1083;DHT22;530;51.448;7.238;2023-10-31T10:16:32;12.10;99.90
1083;DHT22;530;51.448;7.238;2023-10-31T10:19:15;12.20;99.90
1083;DHT22;530;51.448;7.238;2023-10-31T10:21:57;12.20;99.90
1083;DHT22;530;51.448;7.238;2023-10-31T10:24:24;12.20;99.90
1083;DHT22;530;51.448;7.238;2023-10-31T10:26:50;12.20;99.90
1083;DHT22;530;51.448;7.238;2023-10-31T10:29:17;12.20;99.90
1083;DHT22;530;51.448;7.238;2023-10-31T10:31:43;12.20;99.90
1083;DHT22;530;51.448;7.238;2023-10-31T10:34:13;12.20;99.90
1083;DHT22;530;51.448;7.238;2023-10-31T10:36:39;12.10;99.90
1083;DHT22;530;51.448;7.238;2023-10-31T10:39:06;12.20;99.90
1083;DHT22;530;51.448;7.238;2023-10-31T10:41:35;12.10;99.90
1083;DHT22;530;51.448;7.238;2023-10-31T10:44:05;12.20;99.90
1083;DHT22;530;51.448;7.238;2023-10-31T10:46:35;12.20;99.90
1083;DHT22;530;51.448;7.238;2023-10-31T10:49:05;12.20;99.90
1083;DHT22;530;51.448;7.238;2023-10-31T10:52:08;12.20;99.90
1083;DHT22;530;51.448;7.238;2023-10-31T10:55:13;12.20;99.90
1083;DHT22;530;51.448;7.238;2023-10-31T10:57:45;12.20;99.90
1083;DHT22;530;51.448;7.238;2023-10-31T11:00:14;12.20;99.90
1083;DHT22;530;51.448;7.238;2023-10-31T11:02:41;12.20;99.90
1083;DHT22;530;51.448;7.238;2023-10-31T11:05:09;12.20;99.90
1083;DHT22;530;51.448;7.238;2023-10-31T11:07:37;12.20;99.90
1083;DHT22;530;51.448;7.238;2023-10-31T11:10:03;12.20;99.90
1083;DHT22;530;51.448;7.238;2023-10-31T11:12:30;12.20;99.90
1083;DHT22;530;51.448;7.238;2023-10-31T11:15:00;12.20;99.90
1083;DHT22;530;51.448;7.238;2023-10-31T11:17:31;12.10;99.90
1083;DHT22;530;51.448;7.238;2023-10-31T11:19:58;12.20;99.90
1083;DHT22;530;51.448;7.238;2023-10-31T11:22:24;12.20;99.90
1083;DHT22;530;51.448;7.238;2023-10-31T11:24:50;12.30;99.90
1083;DHT22;530;51.448;7.238;2023-10-31T11:27:17;12.30;99.90
1083;DHT22;530;51.448;7.238;2023-10-31T11:29:44;12.40;99.90
1083;DHT22;530;51.448;7.238;2023-10-31T11:32:10;12.40;99.90
1083;DHT22;530;51.448;7.238;2023-10-31T11:34:41;12.40;99.90
1083;DHT22;530;51.448;7.238;2023-10-31T11:42:44;12.50;99.90
1083;DHT22;530;51.448;7.238;2023-10-31T11:45:12;12.50;99.90
1083;DHT22;530;51.448;7.238;2023-10-31T11:47:48;12.50;99.90
1083;DHT22;530;51.448;7.238;2023-10-31T11:50:14;12.50;99.90
1083;DHT22;530;51.448;7.238;2023-10-31T11:52:40;12.60;99.90
1083;DHT22;530;51.448;7.238;2023-10-31T11:55:10;12.60;99.90
1083;DHT22;530;51.448;7.238;2023-10-31T11:57:36;12.60;99.90
1083;DHT22;530;51.448;7.238;2023-10-31T12:00:03;12.60;99.90
1083;DHT22;530;51.448;7.238;2023-10-31T12:02:30;12.70;99.90
1083;DHT22;530;51.448;7.238;2023-10-31T12:07:45;13.00;99.90
1083;DHT22;530;51.448;7.238;2023-10-31T12:10:11;13.10;99.90
1083;DHT22;530;51.448;7.238;2023-10-31T12:12:37;13.20;99.90
1083;DHT22;530;51.448;7.238;2023-10-31T12:15:07;13.30;99.90
1083;DHT22;530;51.448;7.238;2023-10-31T12:17:36;13.30;99.90
1083;DHT22;530;51.448;7.238;2023-10-31T12:20:08;13.30;99.90
1083;DHT22;530;51.448;7.238;2023-10-31T12:22:35;13.30;99.90
1083;DHT22;530;51.448;7.238;2023-10-31T12:25:05;13.40;99.90
1083;DHT22;530;51.448;7.238;2023-10-31T12:27:45;13.40;99.90
1083;DHT22;530;51.448;7.238;2023-10-31T12:30:13;13.40;99.90
1083;DHT22;530;51.448;7.238;2023-10-31T12:32:42;13.40;99.90
1083;DHT22;530;51.448;7.238;2023-10-31T12:35:13;13.40;99.90
1083;DHT22;530;51.448;7.238;2023-10-31T12:37:46;13.40;99.90
1083;DHT22;530;51.448;7.238;2023-10-31T12:40:22;13.40;99.90
1083;DHT22;530;51.448;7.238;2023-10-31T12:42:49;13.30;99.90
1083;DHT22;530;51.448;7.238;2023-10-31T12:45:17;13.30;99.90
1083;DHT22;530;51.448;7.238;2023-10-31T12:47:44;13.40;99.90
1083;DHT22;530;51.448;7.238;2023-10-31T12:50:15;13.30;99.90
1083;DHT22;530;51.448;7.238;2023-10-31T12:52:53;13.30;99.90
1083;DHT22;530;51.448;7.238;2023-10-31T12:55:24;13.30;99.90
1083;DHT22;530;51.448;7.238;2023-10-31T12:57:51;13.40;99.90
1083;DHT22;530;51.448;7.238;2023-10-31T13:00:18;13.30;99.90
1083;DHT22;530;51.448;7.238;2023-10-31T13:03:00;13.30;99.90
1083;DHT22;530;51.448;7.238;2023-10-31T13:05:27;13.30;99.90
1083;DHT22;530;51.448;7.238;2023-10-31T13:07:55;13.30;99.90
1083;DHT22;530;51.448;7.238;2023-10-31T13:10:24;13.30;99.90
1083;DHT22;530;51.448;7.238;2023-10-31T13:12:50;13.40;99.90
1083;DHT22;530;51.448;7.238;2023-10-31T13:15:17;13.40;99.90
1083;DHT22;530;51.448;7.238;2023-10-31T13:17:44;13.40;99.90
1083;DHT22;530;51.448;7.238;2023-10-31T13:20:11;13.50;99.90
1083;DHT22;530;51.448;7.238;2023-10-31T13:22:38;13.60;99.90
1083;DHT22;530;51.448;7.238;2023-10-31T13:25:05;13.90;99.90
1083;DHT22;530;51.448;7.238;2023-10-31T13:27:44;14.00;99.90
1083;DHT22;530;51.448;7.238;2023-10-31T13:30:11;14.00;99.90
1083;DHT22;530;51.448;7.238;2023-10-31T13:32:37;14.00;99.90
1083;DHT22;530;51.448;7.238;2023-10-31T13:35:04;13.80;99.90
1083;DHT22;530;51.448;7.238;2023-10-31T13:37:30;13.80;99.90
1083;DHT22;530;51.448;7.238;2023-10-31T13:39:56;13.80;99.90
1083;DHT22;530;51.448;7.238;2023-10-31T13:42:22;13.70;99.90
1083;DHT22;530;51.448;7.238;2023-10-31T13:44:47;13.70;99.90
1083;DHT22;530;51.448;7.238;2023-10-31T13:47:14;13.60;99.90
1083;DHT22;530;51.448;7.238;2023-10-31T13:49:39;13.50;99.90
1083;DHT22;530;51.448;7.238;2023-10-31T13:52:05;13.40;99.90
1083;DHT22;530;51.448;7.238;2023-10-31T13:54:32;13.40;99.90
1083;DHT22;530;51.448;7.238;2023-10-31T13:56:58;13.50;99.90
1083;DHT22;530;51.448;7.238;2023-10-31T13:59:24;13.50;99.90
1083;DHT22;530;51.448;7.238;2023-10-31T14:01:50;13.50;99.90
1083;DHT22;530;51.448;7.238;2023-10-31T14:04:16;13.50;99.90
1083;DHT22;530;51.448;7.238;2023-10-31T14:06:42;13.60;99.90
1083;DHT22;530;51.448;7.238;2023-10-31T14:09:10;13.70;99.90
1083;DHT22;530;51.448;7.238;2023-10-31T14:11:38;13.70;99.90
1083;DHT22;530;51.448;7.238;2023-10-31T14:14:04;13.60;99.90
1083;DHT22;530;51.448;7.238;2023-10-31T14:16:35;13.60;99.90
1083;DHT22;530;51.448;7.238;2023-10-31T14:19:01;13.60;99.90
1083;DHT22;530;51.448;7.238;2023-10-31T14:21:28;13.60;99.90
1083;DHT22;530;51.448;7.238;2023-10-31T14:23:54;13.60;99.90
1083;DHT22;530;51.448;7.238;2023-10-31T14:26:23;13.50;99.90
1083;DHT22;530;51.448;7.238;2023-10-31T14:28:49;13.50;99.90
1083;DHT22;530;51.448;7.238;2023-10-31T14:31:16;13.40;99.90
1083;DHT22;530;51.448;7.238;2023-10-31T14:33:42;13.50;99.90
1083;DHT22;530;51.448;7.238;2023-10-31T14:36:09;13.40;99.90
1083;DHT22;530;51.448;7.238;2023-10-31T14:38:37;13.40;99.90
1083;DHT22;530;51.448;7.238;2023-10-31T14:41:03;13.40;99.90
1083;DHT22;530;51.448;7.238;2023-10-31T14:43:29;13.30;99.90
1083;DHT22;530;51.448;7.238;2023-10-31T14:45:56;13.30;99.90
1083;DHT22;530;51.448;7.238;2023-10-31T14:48:21;13.30;99.90
1083;DHT22;530;51.448;7.238;2023-10-31T14:50:47;13.30;99.90
1083;DHT22;530;51.448;7.238;2023-10-31T14:53:14;13.30;99.90
1083;DHT22;530;51.448;7.238;2023-10-31T14:55:40;13.30;99.90
1083;DHT22;530;51.448;7.238;2023-10-31T14:58:06;13.30;99.90
1083;DHT22;530;51.448;7.238;2023-10-31T15:00:34;13.30;99.90
1083;DHT22;530;51.448;7.238;2023-10-31T15:03:00;13.30;99.90
1083;DHT22;530;51.448;7.238;2023-10-31T15:05:26;13.30;99.90
1083;DHT22;530;51.448;7.238;2023-10-31T15:07:51;13.30;99.90
1083;DHT22;530;51.448;7.238;2023-10-31T15:10:21;13.20;99.90
1083;DHT22;530;51.448;7.238;2023-10-31T15:12:48;13.20;99.90
1083;DHT22;530;51.448;7.238;2023-10-31T15:15:16;13.20;99.90
1083;DHT22;530;51.448;7.238;2023-10-31T15:17:43;13.20;99.90
1083;DHT22;530;51.448;7.238;2023-10-31T15:20:09;13.20;99.90
1083;DHT22;530;51.448;7.238;2023-10-31T15:22:41;13.20;99.90
1083;DHT22;530;51.448;7.238;2023-10-31T15:25:09;13.20;99.90
1083;DHT22;530;51.448;7.238;2023-10-31T15:27:35;13.20;99.90
1083;DHT22;530;51.448;7.238;2023-10-31T15:30:00;13.20;99.90
1083;DHT22;530;51.448;7.238;2023-10-31T15:32:26;13.10;99.90
1083;DHT22;530;51.448;7.238;2023-10-31T15:34:52;13.10;99.90
1083;DHT22;530;51.448;7.238;2023-10-31T15:37:17;13.00;99.90
1083;DHT22;530;51.448;7.238;2023-10-31T15:39:43;12.90;99.90
1083;DHT22;530;51.448;7.238;2023-10-31T15:42:14;12.90;99.90
1083;DHT22;530;51.448;7.238;2023-10-31T15:44:40;12.80;99.90
1083;DHT22;530;51.448;7.238;2023-10-31T15:47:06;12.80;99.90
1083;DHT22;530;51.448;7.238;2023-10-31T15:49:32;12.80;99.90
1083;DHT22;530;51.448;7.238;2023-10-31T15:51:58;12.70;99.90
1083;DHT22;530;51.448;7.238;2023-10-31T15:54:24;12.60;99.90
1083;DHT22;530;51.448;7.238;2023-10-31T15:56:50;12.60;99.90
1083;DHT22;530;51.448;7.238;2023-10-31T15:59:16;12.60;99.90
1083;DHT22;530;51.448;7.238;2023-10-31T16:01:42;12.60;99.90
1083;DHT22;530;51.448;7.238;2023-10-31T16:04:08;12.60;99.90
1083;DHT22;530;51.448;7.238;2023-10-31T16:06:34;12.50;99.90
1083;DHT22;530;51.448;7.238;2023-10-31T16:09:00;12.50;99.90
1083;DHT22;530;51.448;7.238;2023-10-31T16:11:26;12.50;99.90
1083;DHT22;530;51.448;7.238;2023-10-31T16:13:52;12.60;99.90
1083;DHT22;530;51.448;7.238;2023-10-31T16:16:18;12.60;99.90
1083;DHT22;530;51.448;7.238;2023-10-31T16:18:43;12.60;99.90
1083;DHT22;530;51.448;7.238;2023-10-31T16:21:19;12.60;99.90